aviador You're here:

ZWWW Decoded Metar

URUMQI in CHINA
Report Time2017-12-15 13:30:00
UTC Time2017-12-15 14:09:00
Flight Rules ifr IFR
Wind270° at 2 kt
W.Decomp.*RWY 25: 1.9 kt HW 0.6 kt RCW
W.Rank270° ranks 18
Current wind is below 270° avg. (4.4)
Visibility3000 m
Phenomena:Light Snow
Mist
Clouds:Broken 026 Hf
Expected CloudBase > 400 ft AGL from Temp-Dew spread
Ceiling2,600 ft
Temp-10°C (ISA -21)
Dew Point-11°C (92% RH)
AAT-13.9°C
QNH1043 hPa
Density Alt-1,407 ft
Elevation2,146 ft
Report Wrong Elevation
Raw Report
METAR ZWWW 151330Z 27001MPS 3000 -SN BR BKN026 M10/M11 Q1043 NOSIG=

Extra information for ZWWW:More info

Metar Taf Metar & Taf Last 4 Metars F.Rules Stats Wind Profile Meteogram Temp Stats Airport Information Weather charts Add Link Nearby VenuesMetar ALERT Operation Metar Decoded Social comments